Time;durP1;ratioP1;P1;durP2;ratioP2;P2;SDS_P1;SDS_P2;PMS_P1;PMS_P2;Temp;Humidity;BMP_temperature;BMP_pressure;BME280_temperature;BME280_humidity;BME280_pressure;Samples;Min_cycle;Max_cycle;Signal;HPM_P1;HPM_P2
2022/11/10 00:00:35;;;;;;;;;;;;;;;15.88;77.11;98296.22;4471885;32;20011;-76
2022/11/10 00:03:02;;;;;;;;;;;;;;;16.31;74.92;98291.81;4472294;32;19991;-76
2022/11/10 00:05:29;;;;;;;;;;;;;;;15.76;77.81;98290.00;4472228;32;19968;-76
2022/11/10 00:07:55;;;;;;;;;;;;;;;15.46;78.47;98292.59;4472103;32;19972;-76
2022/11/10 00:10:22;;;;;;;;;;;;;;;15.61;78.35;98296.09;4472252;32;20012;-76
2022/11/10 00:12:51;;;;;;;;;;;;;;;15.97;76.21;98293.06;4472320;32;19980;-76
2022/11/10 00:18:03;;;;;;;;;;;;;;;15.44;79.08;98304.84;4472131;32;19980;-76
2022/11/10 00:20:30;;;;;;;;;;;;;;;16.13;75.83;98303.38;4471815;32;20333;-76
2022/11/10 00:22:56;;;;;;;;;;;;;;;14.62;82.31;98296.56;4472254;32;20311;-76
2022/11/10 00:25:23;;;;;;;;;;;;;;;15.03;80.95;98302.88;4472088;32;19995;-76
2022/11/10 00:27:50;;;;;;;;;;;;;;;15.94;76.58;98308.00;4471881;32;19968;-76
2022/11/10 00:30:17;;;;;;;;;;;;;;;15.31;78.80;98317.75;4472094;32;19964;-76
2022/11/10 00:32:45;;;;;;;;;;;;;;;16.15;75.58;98317.94;4472167;32;20028;-76
2022/11/10 00:35:12;;;;;;;;;;;;;;;15.94;76.76;98323.63;4471730;32;19980;-76
2022/11/10 00:37:38;;;;;;;;;;;;;;;15.39;78.82;98316.44;4472281;32;19987;-76
2022/11/10 00:40:05;;;;;;;;;;;;;;;15.39;78.25;98312.06;4471767;32;19964;-76
2022/11/10 00:42:32;;;;;;;;;;;;;;;16.72;73.69;98320.53;4471678;32;19972;-76
2022/11/10 00:44:59;;;;;;;;;;;;;;;16.69;72.30;98320.72;4471947;32;19990;-76
2022/11/10 00:47:25;;;;;;;;;;;;;;;16.71;73.24;98321.47;4472147;32;19972;-76
2022/11/10 00:49:52;;;;;;;;;;;;;;;15.13;78.78;98323.97;4471528;32;20367;-76
2022/11/10 00:52:18;;;;;;;;;;;;;;;14.86;80.75;98325.50;4471947;32;20250;-76
2022/11/10 00:54:45;;;;;;;;;;;;;;;15.26;79.52;98329.31;4471428;32;20326;-76
2022/11/10 00:57:12;;;;;;;;;;;;;;;15.50;78.47;98335.69;4471701;32;19971;-76
2022/11/10 00:59:38;;;;;;;;;;;;;;;14.82;85.73;98334.41;4471855;32;20291;-76
2022/11/10 01:02:05;;;;;;;;;;;;;;;14.75;81.63;98318.31;4471856;32;20407;-76
2022/11/10 01:04:32;;;;;;;;;;;;;;;16.22;75.18;98334.03;4471495;32;19995;-76
2022/11/10 01:06:59;;;;;;;;;;;;;;;16.84;72.05;98337.16;4471850;32;19968;-76
2022/11/10 01:09:25;;;;;;;;;;;;;;;15.30;77.01;98334.22;4471367;32;19956;-76
2022/11/10 01:11:52;;;;;;;;;;;;;;;15.26;79.26;98332.75;4471790;32;19985;-76
2022/11/10 01:14:19;;;;;;;;;;;;;;;15.15;79.65;98340.31;4471671;32;19976;-76
2022/11/10 01:16:45;;;;;;;;;;;;;;;14.98;80.82;98335.22;4471283;32;19977;-76
2022/11/10 01:19:12;;;;;;;;;;;;;;;15.38;78.17;98332.97;4471690;32;19978;-76
2022/11/10 01:21:39;;;;;;;;;;;;;;;15.86;75.52;98342.31;4471564;32;19987;-76
2022/11/10 01:24:05;;;;;;;;;;;;;;;15.35;77.19;98334.00;4471229;32;19976;-76
2022/11/10 01:26:32;;;;;;;;;;;;;;;15.58;76.33;98337.84;4471534;32;19991;-76
2022/11/10 01:28:59;;;;;;;;;;;;;;;14.94;79.52;98337.16;4471550;32;19979;-76
2022/11/10 01:31:26;;;;;;;;;;;;;;;16.04;74.49;98340.34;4471188;32;19972;-76
2022/11/10 01:33:52;;;;;;;;;;;;;;;15.78;74.83;98339.31;4471590;32;19972;-76
2022/11/10 01:36:19;;;;;;;;;;;;;;;15.82;74.88;98341.63;4471252;32;19987;-76
2022/11/10 01:38:46;;;;;;;;;;;;;;;16.25;72.83;98338.22;4470804;32;19980;-76
2022/11/10 01:41:12;;;;;;;;;;;;;;;15.39;75.53;98338.06;4471316;32;19972;-76
2022/11/10 01:43:39;;;;;;;;;;;;;;;15.21;77.38;98342.59;4471346;32;19976;-76
2022/11/10 01:46:07;;;;;;;;;;;;;;;15.45;75.99;98347.31;4470768;32;20302;-76
2022/11/10 01:48:35;;;;;;;;;;;;;;;16.26;72.81;98351.12;4471278;32;20294;-76
2022/11/10 01:51:06;;;;;;;;;;;;;;;16.24;72.32;98352.16;4471240;32;19991;-76
2022/11/10 01:53:33;;;;;;;;;;;;;;;16.48;71.74;98355.88;4471050;32;20368;-76
2022/11/10 01:56:00;;;;;;;;;;;;;;;17.22;67.77;98359.91;4456958;32;20643;-76
2022/11/10 01:58:28;;;;;;;;;;;;;;;17.01;67.98;98368.19;4470976;32;20268;-75
2022/11/10 02:00:55;;;;;;;;;;;;;;;17.43;66.15;98363.72;4471010;32;19991;-76
2022/11/10 02:03:22;;;;;;;;;;;;;;;17.15;67.17;98369.91;4457082;32;20039;-76
2022/11/10 02:05:49;;;;;;;;;;;;;;;17.18;67.21;98371.47;4470621;32;20022;-76
2022/11/10 02:08:16;;;;;;;;;;;;;;;16.43;69.57;98374.41;4473262;32;19964;-76
2022/11/10 02:10:43;;;;;;;;;;;;;;;16.55;69.68;98375.41;4473036;32;19977;-75
2022/11/10 02:13:10;;;;;;;;;;;;;;;16.63;69.61;98374.94;4472825;32;20025;-75
2022/11/10 02:15:37;;;;;;;;;;;;;;;15.91;72.92;98374.09;4473049;32;20017;-75
2022/11/10 02:18:03;;;;;;;;;;;;;;;16.10;71.65;98379.88;4473249;32;20311;-75
2022/11/10 02:20:30;;;;;;;;;;;;;;;15.64;74.44;98376.56;4472650;32;19986;-75
2022/11/10 02:22:57;;;;;;;;;;;;;;;16.31;72.00;98384.72;4473092;32;20005;-75
2022/11/10 02:25:24;;;;;;;;;;;;;;;15.97;72.81;98376.34;4472938;32;19987;-76
2022/11/10 02:27:51;;;;;;;;;;;;;;;15.80;73.26;98374.72;4472773;32;19964;-76
2022/11/10 02:30:17;;;;;;;;;;;;;;;15.69;73.86;98378.88;4472935;32;19983;-75
2022/11/10 02:32:48;;;;;;;;;;;;;;;15.73;74.26;98373.41;4473076;32;20051;-75
2022/11/10 02:35:14;;;;;;;;;;;;;;;15.70;74.46;98375.34;4472601;32;19968;-76
2022/11/10 02:37:41;;;;;;;;;;;;;;;15.47;75.34;98372.28;4472950;32;19964;-76
2022/11/10 02:40:09;;;;;;;;;;;;;;;14.28;80.96;98367.59;4472574;32;19972;-76
2022/11/10 02:42:35;;;;;;;;;;;;;;;13.27;85.27;98363.16;4472591;32;20254;-76
2022/11/10 02:45:02;;;;;;;;;;;;;;;14.74;79.50;98366.84;4472760;32;19972;-76
2022/11/10 02:47:29;;;;;;;;;;;;;;;15.00;76.88;98377.56;4472824;32;19983;-76
2022/11/10 02:49:55;;;;;;;;;;;;;;;14.05;82.34;98371.41;4472829;32;19973;-76
2022/11/10 02:52:22;;;;;;;;;;;;;;;14.65;79.76;98376.87;4472882;32;19980;-76
2022/11/10 02:54:49;;;;;;;;;;;;;;;15.54;76.16;98386.63;4472391;32;19976;-76
2022/11/10 02:57:15;;;;;;;;;;;;;;;16.24;72.73;98393.81;4472860;32;19968;-76
2022/11/10 02:59:42;;;;;;;;;;;;;;;16.40;71.48;98386.78;4472834;32;19964;-76
2022/11/10 03:02:09;;;;;;;;;;;;;;;15.81;73.33;98396.38;4472458;32;19995;-76
2022/11/10 03:04:35;;;;;;;;;;;;;;;15.18;75.89;98389.53;4472686;32;19986;-76
2022/11/10 03:07:02;;;;;;;;;;;;;;;14.45;79.49;98402.16;4472764;32;19964;-76
2022/11/10 03:09:29;;;;;;;;;;;;;;;15.09;76.52;98407.37;4472299;32;19986;-76
2022/11/10 03:11:55;;;;;;;;;;;;;;;13.45;83.20;98409.84;4472722;32;19980;-76
2022/11/10 03:14:22;;;;;;;;;;;;;;;13.85;82.54;98409.56;4472661;32;19987;-76
2022/11/10 03:16:49;;;;;;;;;;;;;;;14.85;78.17;98413.00;4472174;32;20274;-76
2022/11/10 03:19:15;;;;;;;;;;;;;;;15.21;75.87;98409.34;4472520;32;19991;-76
2022/11/10 03:21:42;;;;;;;;;;;;;;;14.96;77.19;98412.41;4472581;32;19991;-76
2022/11/10 03:24:09;;;;;;;;;;;;;;;14.16;81.10;98415.78;4472224;32;19991;-76
2022/11/10 03:26:35;;;;;;;;;;;;;;;12.45;90.17;98418.78;4472485;32;19963;-76
2022/11/10 03:29:02;;;;;;;;;;;;;;;12.66;88.90;98419.56;4472577;32;19964;-76
2022/11/10 03:31:29;;;;;;;;;;;;;;;12.66;88.18;98420.41;4472214;32;19976;-76
2022/11/10 03:33:55;;;;;;;;;;;;;;;11.68;94.03;98422.91;4472642;32;19986;-76
2022/11/10 03:36:22;;;;;;;;;;;;;;;12.56;89.80;98426.06;4472351;32;19968;-76
2022/11/10 03:38:49;;;;;;;;;;;;;;;12.06;92.14;98427.34;4472011;32;19992;-76
2022/11/10 03:41:15;;;;;;;;;;;;;;;12.44;92.00;98430.87;4472508;32;19994;-76
2022/11/10 03:43:45;;;;;;;;;;;;;;;12.40;90.22;98431.06;4472106;32;20656;-75
2022/11/10 03:46:12;;;;;;;;;;;;;;;13.19;87.02;98434.41;4472295;32;19965;-76
2022/11/10 03:48:38;;;;;;;;;;;;;;;13.35;85.04;98434.53;4472512;32;19980;-76
2022/11/10 03:51:05;;;;;;;;;;;;;;;13.35;84.97;98432.78;4472103;32;19995;-76
2022/11/10 03:53:32;;;;;;;;;;;;;;;12.61;88.84;98437.03;4472423;32;20008;-75
2022/11/10 03:55:59;;;;;;;;;;;;;;;12.71;88.10;98431.37;4472266;32;19960;-76
2022/11/10 03:58:26;;;;;;;;;;;;;;;12.07;90.18;98429.03;4472146;32;20303;-75
2022/11/10 04:00:53;;;;;;;;;;;;;;;11.06;96.18;98434.00;4472357;32;20248;-75
2022/11/10 04:03:20;;;;;;;;;;;;;;;12.04;91.26;98438.69;4472384;32;19968;-75
2022/11/10 04:15:40;;;;;;;;;;;;;;;12.95;88.10;98449.28;4472405;32;20464;-75
2022/11/10 04:16:49;;;;;;;;;;;;;;;14.16;80.88;98471.13;4472336;32;19964;-76
2022/11/10 04:19:16;;;;;;;;;;;;;;;13.58;82.08;98478.31;4471905;32;20025;-76
2022/11/10 04:21:42;;;;;;;;;;;;;;;14.78;77.00;98487.00;4472178;32;19976;-76
2022/11/10 04:24:09;;;;;;;;;;;;;;;14.56;77.13;98482.06;4472263;32;19964;-76
2022/11/10 04:26:39;;;;;;;;;;;;;;;14.81;76.18;98489.44;4457846;32;20281;-76
2022/11/10 04:29:09;;;;;;;;;;;;;;;13.84;79.70;98477.06;4471759;32;20032;-76
2022/11/10 04:31:37;;;;;;;;;;;;;;;14.46;78.19;98491.25;4472286;32;19984;-76
2022/11/10 04:34:04;;;;;;;;;;;;;;;13.68;81.37;98492.53;4457692;32;19967;-76
2022/11/10 04:36:32;;;;;;;;;;;;;;;14.10;79.34;98486.97;4472077;32;19990;-76
2022/11/10 04:38:58;;;;;;;;;;;;;;;14.87;75.66;98488.25;4471892;32;20578;-76
2022/11/10 04:41:25;;;;;;;;;;;;;;;13.40;81.27;98489.56;4457631;32;20039;-76
2022/11/10 04:43:52;;;;;;;;;;;;;;;13.72;80.00;98490.66;4472110;32;20307;-76
2022/11/10 04:46:23;;;;;;;;;;;;;;;13.69;80.37;98486.41;4471919;32;20402;-75
2022/11/10 04:48:50;;;;;;;;;;;;;;;12.94;82.81;98492.50;4471772;32;19980;-76
2022/11/10 04:51:16;;;;;;;;;;;;;;;13.50;81.57;98493.41;4472021;32;20307;-76
2022/11/10 04:53:43;;;;;;;;;;;;;;;13.95;78.75;98482.56;4471995;32;20296;-76
2022/11/10 04:56:12;;;;;;;;;;;;;;;13.15;81.82;98489.84;4471637;32;20329;-76
2022/11/10 04:58:39;;;;;;;;;;;;;;;13.29;81.70;98492.66;4457805;32;19984;-75
2022/11/10 05:01:06;;;;;;;;;;;;;;;14.31;76.81;98498.03;4471500;32;20311;-76
2022/11/10 05:03:32;;;;;;;;;;;;;;;13.55;79.84;98499.22;4471893;32;20055;-76
2022/11/10 05:05:59;;;;;;;;;;;;;;;13.59;79.74;98504.16;4457688;32;19983;-76
2022/11/10 05:08:26;;;;;;;;;;;;;;;13.54;79.83;98511.34;4471563;32;19995;-76
2022/11/10 05:10:52;;;;;;;;;;;;;;;14.01;77.77;98510.78;4471848;32;19975;-76
2022/11/10 05:13:19;;;;;;;;;;;;;;;14.88;74.40;98526.31;4471826;32;19976;-76
2022/11/10 05:15:46;;;;;;;;;;;;;;;14.57;74.89;98524.44;4471266;32;19968;-76
2022/11/10 05:18:13;;;;;;;;;;;;;;;14.25;76.73;98520.88;4471760;32;19991;-76
2022/11/10 05:20:40;;;;;;;;;;;;;;;14.38;76.14;98522.78;4471652;32;19977;-76
2022/11/10 05:25:51;;;;;;;;;;;;;;;13.68;78.66;98522.81;4471579;32;20071;-76
2022/11/10 05:28:18;;;;;;;;;;;;;;;12.74;81.96;98521.03;4471663;32;19995;-76
2022/11/10 05:30:45;;;;;;;;;;;;;;;11.80;88.19;98520.66;4457218;32;19984;-76
2022/11/10 05:33:12;;;;;;;;;;;;;;;12.43;85.30;98527.50;4471529;32;19972;-75
2022/11/10 05:35:39;;;;;;;;;;;;;;;12.71;84.53;98523.75;4471355;32;20459;-76
2022/11/10 05:38:05;;;;;;;;;;;;;;;12.22;86.60;98530.16;4471191;32;20299;-75
2022/11/10 05:40:32;;;;;;;;;;;;;;;12.33;86.01;98528.81;4471228;32;19998;-75
2022/11/10 05:42:59;;;;;;;;;;;;;;;11.88;88.14;98526.38;4472904;32;19972;-76
2022/11/10 05:45:26;;;;;;;;;;;;;;;12.64;85.73;98537.84;4473255;32;19980;-75
2022/11/10 05:47:53;;;;;;;;;;;;;;;12.71;84.88;98534.09;4473160;32;20345;-76
2022/11/10 05:50:20;;;;;;;;;;;;;;;12.78;85.05;98542.47;4459006;32;19976;-76
2022/11/10 05:52:48;;;;;;;;;;;;;;;13.73;79.74;98546.78;4473278;32;19987;-76
2022/11/10 05:55:16;;;;;;;;;;;;;;;14.75;75.92;98562.47;4473115;32;20262;-76
2022/11/10 05:57:46;;;;;;;;;;;;;;;14.01;77.57;98557.50;4472976;32;19991;-76
2022/11/10 06:00:13;;;;;;;;;;;;;;;15.04;74.42;98566.16;4459224;32;20003;-76
2022/11/10 06:02:40;;;;;;;;;;;;;;;16.08;70.33;98584.78;4459023;32;19968;-76
2022/11/10 06:05:07;;;;;;;;;;;;;;;16.74;66.40;98599.22;4472823;32;20299;-76
2022/11/10 06:07:34;;;;;;;;;;;;;;;16.77;65.65;98602.47;4459221;32;19984;-76
2022/11/10 06:10:01;;;;;;;;;;;;;;;16.51;67.04;98602.31;4473068;32;19994;-76
2022/11/10 06:12:29;;;;;;;;;;;;;;;15.75;69.17;98603.09;4472773;32;19987;-75
2022/11/10 06:14:56;;;;;;;;;;;;;;;15.88;69.29;98617.12;4472955;32;20425;-76
2022/11/10 06:17:26;;;;;;;;;;;;;;;15.68;69.46;98619.13;4459147;32;19980;-76
2022/11/10 06:19:53;;;;;;;;;;;;;;;15.68;69.62;98625.16;4473191;32;19972;-80
2022/11/10 06:22:19;;;;;;;;;;;;;;;15.33;71.33;98630.47;4474855;32;20256;-79
2022/11/10 06:24:46;;;;;;;;;;;;;;;15.14;72.06;98636.69;4472686;32;20018;-79
2022/11/10 06:27:13;;;;;;;;;;;;;;;14.65;74.31;98640.03;4474090;32;19994;-78
2022/11/10 06:29:40;;;;;;;;;;;;;;;15.75;69.67;98652.53;4474089;32;20002;-77
2022/11/10 06:32:06;;;;;;;;;;;;;;;15.59;69.58;98646.44;4472739;32;20321;-77
2022/11/10 06:34:33;;;;;;;;;;;;;;;15.60;69.65;98645.53;4474082;32;19968;-78
2022/11/10 06:37:00;;;;;;;;;;;;;;;15.64;69.48;98652.28;4472861;32;19991;-78
2022/11/10 06:39:26;;;;;;;;;;;;;;;16.53;65.42;98650.78;4472191;32;19976;-78
2022/11/10 06:41:53;;;;;;;;;;;;;;;17.01;63.02;98659.28;4472784;32;19987;-78
2022/11/10 06:44:20;;;;;;;;;;;;;;;16.73;64.65;98662.69;4472791;32;19979;-79
2022/11/10 06:46:46;;;;;;;;;;;;;;;16.86;63.84;98661.03;4472468;32;19968;-78
2022/11/10 06:49:13;;;;;;;;;;;;;;;16.93;63.57;98667.59;4472691;32;19987;-78
2022/11/10 06:51:40;;;;;;;;;;;;;;;17.77;59.95;98680.78;4472448;32;19968;-78
2022/11/10 06:54:06;;;;;;;;;;;;;;;17.42;61.17;98685.50;4472507;32;20298;-79
2022/11/10 06:56:33;;;;;;;;;;;;;;;17.01;63.98;98687.97;4472642;32;19972;-79
2022/11/10 06:59:00;;;;;;;;;;;;;;;17.60;63.37;98694.84;4472664;32;20006;-79
2022/11/10 07:01:27;;;;;;;;;;;;;;;18.45;59.39;98691.25;4472129;32;19990;-79
2022/11/10 07:03:53;;;;;;;;;;;;;;;18.55;59.15;98685.44;4472570;32;19968;-79
2022/11/10 07:06:40;;;;;;;;;;;;;;;18.44;59.21;98693.97;4460972;32;19984;-79
2022/11/10 07:09:07;;;;;;;;;;;;;;;19.44;55.49;98696.88;4472340;32;19972;-78
2022/11/10 07:11:34;;;;;;;;;;;;;;;20.03;52.82;98698.94;4472733;32;19986;-79
2022/11/10 07:14:00;;;;;;;;;;;;;;;19.77;53.78;98701.59;4472827;32;20073;-79
2022/11/10 07:16:27;;;;;;;;;;;;;;;20.02;53.27;98699.88;4472204;32;20321;-79
2022/11/10 07:18:54;;;;;;;;;;;;;;;20.51;51.31;98711.16;4472524;32;20041;-80
2022/11/10 07:21:20;;;;;;;;;;;;;;;20.57;51.30;98719.53;4472544;32;19980;-79
2022/11/10 07:23:47;;;;;;;;;;;;;;;20.68;50.72;98716.97;4472389;32;19968;-79
2022/11/10 07:26:14;;;;;;;;;;;;;;;21.19;49.59;98720.13;4472415;32;19976;-79
2022/11/10 07:28:41;;;;;;;;;;;;;;;21.51;49.02;98735.25;4472402;32;19976;-79
2022/11/10 07:31:08;;;;;;;;;;;;;;;21.30;48.14;98745.59;4473088;32;20302;-80
2022/11/10 07:33:34;;;;;;;;;;;;;;;20.72;49.94;98739.38;4474226;32;20295;-79
2022/11/10 07:36:06;;;;;;;;;;;;;;;21.27;49.54;98732.69;4472833;32;19976;-79
2022/11/10 07:38:32;;;;;;;;;;;;;;;21.90;46.81;98736.56;4472586;32;19995;-79
2022/11/10 07:40:59;;;;;;;;;;;;;;;22.37;45.07;98742.53;4474163;32;19986;-79
2022/11/10 07:43:26;;;;;;;;;;;;;;;20.82;47.71;98721.19;4473218;32;20251;-79
2022/11/10 07:45:52;;;;;;;;;;;;;;;20.33;49.46;98727.34;4473237;32;19976;-79
2022/11/10 07:48:19;;;;;;;;;;;;;;;20.91;48.71;98738.88;4476576;32;19984;-79
2022/11/10 07:50:46;;;;;;;;;;;;;;;19.87;50.87;98738.44;4476174;32;20380;-79
2022/11/10 07:53:13;;;;;;;;;;;;;;;20.34;50.40;98742.13;4476062;32;19968;-79
2022/11/10 07:55:41;;;;;;;;;;;;;;;20.05;51.43;98738.94;4476747;32;19994;-78
2022/11/10 07:58:08;;;;;;;;;;;;;;;21.55;47.57;98748.00;4476483;32;20018;-79
2022/11/10 08:00:35;;;;;;;;;;;;;;;21.32;47.38;98756.78;4461943;32;19964;-79
2022/11/10 08:03:02;;;;;;;;;;;;;;;20.56;49.21;98750.16;4475868;32;20598;-79
2022/11/10 08:05:29;;;;;;;;;;;;;;;19.41;51.26;98745.97;4474993;32;19980;-79
2022/11/10 08:07:56;;;;;;;;;;;;;;;19.46;52.06;98765.69;4474329;32;19991;-79
2022/11/10 08:10:22;;;;;;;;;;;;;;;19.16;55.04;98771.19;4472912;32;19968;-79
2022/11/10 08:12:53;;;;;;;;;;;;;;;20.05;50.58;98768.59;4460926;32;19964;-79
2022/11/10 08:15:20;;;;;;;;;;;;;;;21.02;48.72;98771.22;4473507;32;19945;-79
2022/11/10 08:17:46;;;;;;;;;;;;;;;19.92;51.58;98776.47;4473050;32;20326;-79
2022/11/10 08:20:13;;;;;;;;;;;;;;;19.16;52.95;98776.41;4475132;32;20679;-80
2022/11/10 08:22:40;;;;;;;;;;;;;;;20.45;49.46;98784.16;4474755;32;19961;-79
2022/11/10 08:25:07;;;;;;;;;;;;;;;20.20;49.95;98779.78;4475629;32;19968;-79
2022/11/10 08:27:34;;;;;;;;;;;;;;;19.62;52.71;98774.19;4475509;32;19952;-80
2022/11/10 08:30:00;;;;;;;;;;;;;;;20.06;50.91;98783.38;4481729;32;19948;-80
2022/11/10 08:32:27;;;;;;;;;;;;;;;18.70;54.73;98794.22;4481068;32;19972;-80
2022/11/10 08:34:55;;;;;;;;;;;;;;;17.99;58.61;98787.34;4466064;32;19999;-80
2022/11/10 08:37:21;;;;;;;;;;;;;;;18.38;58.03;98784.00;4478934;32;19948;-79
2022/11/10 08:39:48;;;;;;;;;;;;;;;17.24;62.13;98788.34;4478666;32;19968;-80
2022/11/10 08:42:15;;;;;;;;;;;;;;;17.03;62.70;98795.63;4476803;32;19968;-79
2022/11/10 08:44:41;;;;;;;;;;;;;;;16.78;64.62;98796.16;4475333;32;19977;-79
2022/11/10 08:47:08;;;;;;;;;;;;;;;16.86;64.49;98804.37;4475684;32;19995;-82
2022/11/10 08:49:35;;;;;;;;;;;;;;;17.19;64.51;98811.22;4474766;32;19986;-81
2022/11/10 08:52:01;;;;;;;;;;;;;;;16.42;66.44;98809.44;4475420;32;19994;-80
2022/11/10 08:54:28;;;;;;;;;;;;;;;16.05;69.24;98818.34;4472468;32;19987;-80
2022/11/10 08:56:55;;;;;;;;;;;;;;;16.41;67.35;98828.59;4474598;32;19999;-79
2022/11/10 08:59:21;;;;;;;;;;;;;;;16.20;68.27;98825.38;4474230;32;19968;-79
2022/11/10 09:01:48;;;;;;;;;;;;;;;17.39;64.99;98831.78;4474214;32;20331;-79
2022/11/10 09:04:15;;;;;;;;;;;;;;;16.96;65.94;98830.78;4458674;32;20349;-79
2022/11/10 09:06:41;;;;;;;;;;;;;;;17.27;63.51;98830.72;4474760;32;20051;-79
2022/11/10 09:09:09;;;;;;;;;;;;;;;16.67;66.79;98845.38;4475171;32;20047;-80
2022/11/10 09:11:36;;;;;;;;;;;;;;;16.57;67.62;98844.22;4474642;32;19964;-80
2022/11/10 09:14:02;;;;;;;;;;;;;;;15.70;71.18;98839.25;4475171;32;19948;-81
2022/11/10 09:16:29;;;;;;;;;;;;;;;15.60;72.52;98838.88;4473306;32;19991;-82
2022/11/10 09:18:56;;;;;;;;;;;;;;;15.66;73.49;98837.72;4471583;32;19972;-82
2022/11/10 09:21:22;;;;;;;;;;;;;;;15.76;73.04;98845.91;4471421;32;19983;-80
2022/11/10 09:23:49;;;;;;;;;;;;;;;15.66;73.77;98850.72;4457558;32;19994;-79
2022/11/10 09:26:15;;;;;;;;;;;;;;;15.47;73.79;98860.34;4471461;32;19987;-79
2022/11/10 09:28:42;;;;;;;;;;;;;;;16.01;72.16;98850.69;4471879;32;20338;-79
2022/11/10 09:31:09;;;;;;;;;;;;;;;16.24;71.10;98858.13;4471830;32;19968;-79
2022/11/10 09:33:36;;;;;;;;;;;;;;;15.93;71.49;98860.63;4471449;32;19990;-80
2022/11/10 09:36:02;;;;;;;;;;;;;;;15.23;75.05;98873.63;4470896;32;20060;-80
2022/11/10 09:38:29;;;;;;;;;;;;;;;15.98;72.65;98867.31;4471156;32;20010;-80
2022/11/10 09:41:01;;;;;;;;;;;;;;;15.75;73.45;98870.25;4471518;32;19968;-79
2022/11/10 09:43:37;;;;;;;;;;;;;;;15.40;75.50;98865.00;4470771;32;20322;-80
2022/11/10 09:46:15;;;;;;;;;;;;;;;15.32;75.92;98885.34;4470921;32;20239;-80
2022/11/10 09:48:43;;;;;;;;;;;;;;;15.58;74.19;98889.25;4456794;32;19983;-79
2022/11/10 09:51:11;;;;;;;;;;;;;;;16.24;72.22;98884.16;4471171;32;19969;-80
2022/11/10 09:53:43;;;;;;;;;;;;;;;17.83;64.96;98893.59;4457371;32;19996;-80
2022/11/10 09:56:11;;;;;;;;;;;;;;;16.78;67.77;98888.22;4456845;32;20002;-80
2022/11/10 09:58:39;;;;;;;;;;;;;;;17.73;64.44;98895.91;4457259;32;19972;-80
2022/11/10 10:02:14;;;;;;;16.27;6.78;;;;;;;17.62;64.69;98906.94;4547091;31;224470;-77
2022/11/10 10:05:05;;;;;;;16.77;7.65;;;;;;;17.62;64.69;98906.94;4546833;31;20091;-77
2022/11/10 10:07:58;;;;;;;18.90;8.48;;;;;;;15.67;72.30;98907.03;4547077;31;20080;-77
2022/11/10 10:10:44;;;;;;;18.45;7.90;;;;;;;15.80;72.16;98910.72;4533270;31;20142;-77
2022/11/10 10:13:35;;;;;;;18.00;8.27;;;;;;;15.20;75.47;98914.50;4531232;31;20091;-78
2022/11/10 10:16:11;;;;;;;21.92;9.05;;;;;;;14.98;75.78;98909.50;4530613;31;20114;-77
2022/11/10 10:18:50;;;;;;;16.52;7.35;;;;;;;14.05;80.27;98911.09;4530722;31;20370;-77
2022/11/10 10:21:32;;;;;;;16.45;6.62;;;;;;;14.15;81.07;98912.38;4530843;31;20080;-77
2022/11/10 10:24:01;;;;;;;17.80;7.28;;;;;;;14.47;80.91;98913.59;4530706;31;20091;-78
2022/11/10 10:26:50;;;;;;;22.17;8.48;;;;;;;13.91;82.93;98916.84;4530988;31;20175;-78
2022/11/10 10:29:46;;;;;;;17.75;7.95;;;;;;;14.94;78.38;98914.00;4530813;31;20080;-77
2022/11/10 10:32:15;;;;;;;16.27;7.32;;;;;;;14.73;79.34;98920.19;4516327;31;20076;-78
2022/11/10 10:34:43;;;;;;;20.12;7.10;;;;;;;14.33;80.22;98918.50;4530672;31;20087;-80
2022/11/10 10:37:40;;;;;;;18.12;8.40;;;;;;;13.93;82.17;98917.66;4530668;31;20125;-80
2022/11/10 10:40:12;;;;;;;19.52;7.87;;;;;;;14.41;80.42;98924.19;4530585;31;20106;-80
2022/11/10 10:42:40;;;;;;;16.75;7.87;;;;;;;13.94;82.93;98934.06;4530868;31;20076;-80
2022/11/10 10:45:27;;;;;;;17.60;8.55;;;;;;;14.10;80.67;98937.66;4530590;31;20096;-79
2022/11/10 10:47:55;;;;;;;;;;;;;;;14.01;81.74;98932.88;4530720;31;20099;-80
2022/11/10 11:43:28;;;;;;;19.27;8.98;;;;;;;13.70;88.11;98980.81;4491574;31;223344;-77
2022/11/10 11:46:15;;;;;;;15.32;7.43;;;;;;;13.70;88.11;98980.81;4498908;31;20532;-77
2022/11/10 11:48:50;;;;;;;15.50;6.67;;;;;;;12.73;90.63;98975.91;4499290;31;20084;-77
2022/11/10 11:51:36;;;;;;;16.00;6.87;;;;;;;12.61;90.84;98984.12;4499054;31;20186;-76
2022/11/10 11:54:32;;;;;;;15.57;6.85;;;;;;;12.93;89.85;98980.34;4499265;31;20115;-77
2022/11/10 11:57:23;;;;;;;19.70;8.02;;;;;;;12.43;91.21;98980.44;4499018;31;20104;-77
2022/11/10 12:00:09;;;;;;;14.27;5.55;;;;;;;12.29;92.88;98979.25;4497422;32;20096;-77
2022/11/10 12:03:00;;;;;;;16.10;6.43;;;;;;;12.31;92.38;98974.84;4498016;31;20434;-77
2022/11/10 12:05:30;;;;;;;15.98;6.75;;;;;;;12.36;93.14;98973.81;4499508;32;20133;-82
2022/11/10 12:08:05;;;;;;;16.15;6.30;;;;;;;12.58;92.16;98986.81;4502789;32;20104;-84
2022/11/10 12:14:15;;;;;;;;;;;;;;;12.85;90.57;98987.56;4497661;32;20095;-83
2022/11/10 12:16:55;;;;;;;15.13;6.12;;;;;;;13.34;88.25;98983.12;4497971;31;20265;-83
2022/11/10 12:19:50;;;;;;;14.68;5.80;;;;;;;13.09;89.31;98980.63;4497508;31;20103;-83
2022/11/10 12:22:37;;;;;;;13.45;6.05;;;;;;;13.23;88.87;98990.50;4496852;32;20084;-83
2022/11/10 12:25:29;;;;;;;14.05;6.10;;;;;;;13.43;87.68;99000.94;4496940;31;20560;-83
2022/11/10 12:28:24;;;;;;;14.90;6.35;;;;;;;13.07;90.53;99004.88;4498401;32;20119;-83
2022/11/10 12:30:54;;;;;;;13.98;5.72;;;;;;;13.07;91.11;99002.28;4498829;31;20164;-83
2022/11/10 12:33:37;;;;;;;13.90;5.75;;;;;;;13.45;88.85;99009.50;4499308;31;20099;-82
2022/11/10 12:36:07;;;;;;;12.27;5.53;;;;;;;13.37;89.47;99019.31;4500124;31;20053;-83
2022/11/10 12:39:07;;;;;;;13.80;4.97;;;;;;;13.11;90.71;99012.50;4501087;31;20114;-81
2022/11/10 12:41:38;;;;;;;12.88;5.82;;;;;;;12.96;92.71;99008.72;4493161;32;20133;-82
2022/11/10 12:44:20;;;;;;;14.55;5.30;;;;;;;13.07;92.74;99018.69;4495575;32;20080;-82
2022/11/10 12:46:49;;;;;;;14.40;5.30;;;;;;;13.48;90.84;99024.91;4500667;32;20077;-81
2022/11/10 12:49:30;;;;;;;12.70;5.28;;;;;;;13.33;91.10;99020.34;4497803;32;20084;-82
2022/11/10 12:52:14;;;;;;;11.75;5.28;;;;;;;13.39;91.63;99022.69;4496091;32;20069;-80
2022/11/10 12:54:43;;;;;;;14.07;5.85;;;;;;;13.60;90.80;99023.59;4501422;32;20056;-79
2022/11/10 12:57:17;;;;;;;12.13;4.80;;;;;;;13.51;92.07;99027.41;4495364;31;20567;-80
2022/11/10 13:00:00;;;;;;;13.15;5.75;;;;;;;13.81;90.32;99033.09;4497755;32;20073;-79
2022/11/10 13:02:39;;;;;;;11.73;4.93;;;;;;;13.61;89.50;99035.69;4501720;31;20060;-80
2022/11/10 13:05:12;;;;;;;13.10;5.12;;;;;;;13.71;89.82;99046.50;4498538;32;20056;-81
2022/11/10 13:07:45;;;;;;;13.15;5.62;;;;;;;13.00;94.05;99033.63;4500791;31;20061;-81
2022/11/10 13:10:23;;;;;;;14.70;5.50;;;;;;;13.33;91.78;99043.66;4497830;32;20104;-81
2022/11/10 13:13:16;;;;;;;11.12;5.30;;;;;;;13.20;91.81;99040.69;4498477;32;20092;-81
2022/11/10 13:15:43;;;;;;;13.30;5.35;;;;;;;13.31;90.70;99040.28;4498785;32;20061;-79
2022/11/10 13:18:10;;;;;;;;;;;;;;;13.41;91.29;99041.63;4501595;31;20056;-81
2022/11/10 13:20:37;;;;;;;13.38;5.40;;;;;;;13.31;90.25;99045.47;4499193;32;19963;-81
2022/11/10 13:23:22;;;;;;;;;;;;;;;13.72;88.18;99048.22;4501091;31;20061;-81
2022/11/10 13:26:06;;;;;;;11.77;5.45;;;;;;;13.59;89.04;99056.44;4499410;31;19966;-80
2022/11/10 13:28:45;;;;;;;13.05;5.50;;;;;;;13.81;88.21;99059.03;4497807;31;20137;-81
2022/11/10 13:31:28;;;;;;;13.82;5.07;;;;;;;13.74;88.16;99062.81;4499164;31;20097;-81
2022/11/10 13:34:13;;;;;;;10.25;4.57;;;;;;;14.13;86.37;99062.09;4496563;31;20119;-81
2022/11/10 13:36:44;;;;;;;10.75;4.78;;;;;;;14.18;85.60;99073.16;4495007;32;20117;-80
2022/11/10 13:39:15;;;;;;;13.23;5.50;;;;;;;14.20;85.72;99076.50;4495281;31;20057;-81
2022/11/10 13:41:46;;;;;;;11.68;4.95;;;;;;;14.36;84.47;99081.94;4495526;31;20080;-81
2022/11/10 13:44:35;;;;;;;11.20;5.15;;;;;;;14.32;83.91;99082.94;4493257;31;20111;-81
2022/11/10 13:47:07;;;;;;;12.30;5.57;;;;;;;14.45;83.31;99076.38;4491810;32;20118;-81
2022/11/10 13:49:49;;;;;;;12.85;5.30;;;;;;;14.39;84.09;99082.66;4492878;31;20114;-81
2022/11/10 13:55:26;;;;;;;14.30;6.72;;;;;;;14.54;83.50;99080.34;4504152;27;20078;-81